createdAt,value
2023-03-22T00:01:43.133Z,57.18
2023-03-22T00:04:11.472Z,58.82
2023-03-22T00:06:39.360Z,60.05
2023-03-22T00:09:07.087Z,60.58
2023-03-22T00:11:34.821Z,64.68
2023-03-22T00:14:02.588Z,65.12
2023-03-22T00:16:30.558Z,61.48
2023-03-22T00:18:58.412Z,56.77
2023-03-22T00:21:26.202Z,55.97
2023-03-22T00:23:53.940Z,56.91
2023-03-22T00:26:21.811Z,58.82
2023-03-22T00:28:49.823Z,59.84
2023-03-22T00:31:17.857Z,60.64
2023-03-22T00:33:45.723Z,61.62
2023-03-22T00:36:13.853Z,65.57
2023-03-22T00:38:44.105Z,65.74
2023-03-22T00:41:16.129Z,61.52
2023-03-22T00:43:46.800Z,57.32
2023-03-22T00:46:15.507Z,56.59
2023-03-22T00:48:43.589Z,57.70
2023-03-22T00:51:11.930Z,58.95
2023-03-22T00:53:43.096Z,59.81
2023-03-22T00:56:15.900Z,61.06
2023-03-22T00:58:47.157Z,65.48
2023-03-22T01:01:15.345Z,65.03
2023-03-22T01:03:44.069Z,61.30
2023-03-22T01:06:15.500Z,58.01
2023-03-22T01:08:43.304Z,57.07
2023-03-22T01:11:11.225Z,58.20
2023-03-22T01:13:39.486Z,60.03
2023-03-22T01:16:08.413Z,60.47
2023-03-22T01:18:36.780Z,63.97
2023-03-22T01:21:05.199Z,65.27
2023-03-22T01:23:33.476Z,62.43
2023-03-22T01:26:01.611Z,60.09
2023-03-22T01:28:30.384Z,57.10
2023-03-22T01:31:01.869Z,56.45
2023-03-22T01:33:30.585Z,58.17
2023-03-22T01:35:58.797Z,59.89
2023-03-22T01:38:26.925Z,60.93
2023-03-22T01:40:57.881Z,64.86
2023-03-22T01:43:26.109Z,65.69
2023-03-22T01:45:55.329Z,63.11
2023-03-22T01:48:36.201Z,60.32
2023-03-22T01:51:09.846Z,56.81
2023-03-22T01:53:58.244Z,55.82
2023-03-22T01:56:28.814Z,57.51
2023-03-22T01:58:57.307Z,59.72
2023-03-22T02:01:31.977Z,60.89
2023-03-22T02:04:12.365Z,65.08
2023-03-22T02:06:41.080Z,65.09
2023-03-22T02:09:14.680Z,60.98
2023-03-22T02:11:44.453Z,57.33
2023-03-22T02:14:29.464Z,56.79
2023-03-22T02:18:07.168Z,58.22
2023-03-22T02:20:53.058Z,59.45
2023-03-22T02:23:46.797Z,61.01
2023-03-22T02:26:23.730Z,65.93
2023-03-22T02:28:54.531Z,64.36
2023-03-22T02:31:56.907Z,61.24
2023-03-22T02:34:36.468Z,56.99
2023-03-22T02:37:10.668Z,56.67
2023-03-22T02:39:48.009Z,58.13
2023-03-22T02:42:40.216Z,59.14
2023-03-22T02:45:11.442Z,60.07
2023-03-22T02:47:59.524Z,61.16
2023-03-22T02:50:52.390Z,61.38
2023-03-22T02:53:26.253Z,66.48
2023-03-22T02:56:03.967Z,65.36
2023-03-22T02:58:45.888Z,61.22
2023-03-22T03:01:20.090Z,57.11
2023-03-22T03:03:49.946Z,56.18
2023-03-22T03:06:20.469Z,57.72
2023-03-22T03:08:50.986Z,59.31
2023-03-22T03:11:20.114Z,60.37
2023-03-22T03:13:50.383Z,61.55
2023-03-22T03:16:21.255Z,64.60
2023-03-22T03:19:08.041Z,65.60
2023-03-22T03:22:00.212Z,62.62
2023-03-22T03:24:34.875Z,57.39
2023-03-22T03:27:20.192Z,56.87
2023-03-22T03:29:51.505Z,57.89
2023-03-22T03:32:35.367Z,59.65
2023-03-22T03:35:22.717Z,60.63
2023-03-22T03:37:59.034Z,61.39
2023-03-22T03:40:31.197Z,64.70
2023-03-22T03:42:59.943Z,66.06
2023-03-22T03:45:27.890Z,63.25
2023-03-22T03:48:00.884Z,60.12
2023-03-22T03:50:29.228Z,56.62
2023-03-22T03:52:57.982Z,56.20
2023-03-22T03:55:26.729Z,57.52
2023-03-22T03:57:54.552Z,58.70
2023-03-22T04:00:22.561Z,59.81
2023-03-22T04:03:10.232Z,60.55
2023-03-22T04:05:56.879Z,64.83
2023-03-22T04:08:25.325Z,64.88
2023-03-22T04:10:53.581Z,61.93
2023-03-22T04:13:21.697Z,59.34
2023-03-22T04:15:54.285Z,56.33
2023-03-22T04:18:22.074Z,56.73
2023-03-22T04:20:53.439Z,57.95
2023-03-22T04:23:23.218Z,59.63
2023-03-22T04:25:52.127Z,61.10
2023-03-22T04:28:30.024Z,64.91
2023-03-22T04:30:58.017Z,64.62
2023-03-22T04:33:49.923Z,61.56
2023-03-22T04:36:31.131Z,59.49
2023-03-22T04:39:13.461Z,56.44
2023-03-22T04:41:42.032Z,57.20
2023-03-22T04:44:09.885Z,58.57
2023-03-22T04:46:42.746Z,59.62
2023-03-22T04:49:11.201Z,60.67
2023-03-22T04:51:40.397Z,64.43
2023-03-22T04:54:20.387Z,65.03
2023-03-22T04:56:48.454Z,61.89
2023-03-22T04:59:20.491Z,58.37
2023-03-22T05:01:50.565Z,57.50
2023-03-22T05:04:22.409Z,58.74
2023-03-22T05:06:53.600Z,59.84
2023-03-22T05:09:26.236Z,60.92
2023-03-22T05:11:54.503Z,61.21
2023-03-22T05:14:33.601Z,64.82
2023-03-22T05:17:01.785Z,66.06
2023-03-22T05:19:29.895Z,63.58
2023-03-22T05:21:58.533Z,60.94
2023-03-22T05:24:36.022Z,57.39
2023-03-22T05:27:04.200Z,57.09
2023-03-22T05:29:36.998Z,58.41
2023-03-22T05:32:12.058Z,60.00
2023-03-22T05:34:42.867Z,60.88
2023-03-22T05:37:23.633Z,64.42
2023-03-22T05:39:54.688Z,64.68
2023-03-22T05:42:26.563Z,61.22
2023-03-22T05:44:54.576Z,57.83
2023-03-22T05:47:22.643Z,57.09
2023-03-22T05:50:08.874Z,58.45
2023-03-22T05:52:37.119Z,60.04
2023-03-22T05:55:34.259Z,61.09
2023-03-22T05:58:05.103Z,65.13
2023-03-22T06:00:34.073Z,64.19
2023-03-22T06:03:20.668Z,59.04
2023-03-22T06:05:59.121Z,55.55
2023-03-22T06:08:49.911Z,56.86
2023-03-22T06:11:19.355Z,58.72
2023-03-22T06:13:47.566Z,59.90
2023-03-22T06:16:16.493Z,60.88
2023-03-22T06:18:44.655Z,61.54
2023-03-22T06:21:13.380Z,64.90
2023-03-22T06:23:43.596Z,63.96
2023-03-22T06:26:12.024Z,59.89
2023-03-22T06:28:40.898Z,55.12
2023-03-22T06:31:10.791Z,54.37
2023-03-22T06:33:50.313Z,55.75
2023-03-22T06:36:36.864Z,56.31
2023-03-22T06:39:12.133Z,57.72
2023-03-22T06:41:44.321Z,59.04
2023-03-22T06:44:13.058Z,60.12
2023-03-22T06:47:04.976Z,60.65
2023-03-22T06:49:42.845Z,61.13
2023-03-22T06:52:18.144Z,65.55
2023-03-22T06:54:45.985Z,64.93
2023-03-22T06:57:13.917Z,59.84
2023-03-22T06:59:41.737Z,55.68
2023-03-22T07:02:12.358Z,55.63
2023-03-22T07:04:41.851Z,56.68
2023-03-22T07:07:09.768Z,57.45
2023-03-22T07:09:39.356Z,58.53
2023-03-22T07:12:07.297Z,59.21
2023-03-22T07:14:35.579Z,59.62
2023-03-22T07:17:21.735Z,60.45
2023-03-22T07:19:49.773Z,61.14
2023-03-22T07:22:17.885Z,64.84
2023-03-22T07:24:56.251Z,65.58
2023-03-22T07:27:26.337Z,62.50
2023-03-22T07:29:54.597Z,59.84
2023-03-22T07:32:23.248Z,56.37
2023-03-22T07:35:00.803Z,55.71
2023-03-22T07:37:29.793Z,56.20
2023-03-22T07:39:57.610Z,57.67
2023-03-22T07:42:28.474Z,58.42
2023-03-22T07:45:28.974Z,59.91
2023-03-22T07:48:15.895Z,60.62
2023-03-22T07:50:59.313Z,61.29
2023-03-22T07:53:28.072Z,64.46
2023-03-22T07:55:56.159Z,63.54
2023-03-22T07:58:23.974Z,60.35
2023-03-22T08:00:52.548Z,56.07
2023-03-22T08:03:40.591Z,54.35
2023-03-22T08:06:37.038Z,54.77
2023-03-22T08:09:05.081Z,55.94
2023-03-22T08:11:32.892Z,56.46
2023-03-22T08:14:01.170Z,56.62
2023-03-22T08:16:29.466Z,57.93
2023-03-22T08:18:58.532Z,57.68
2023-03-22T08:21:27.696Z,57.44
2023-03-22T08:23:56.584Z,57.46
2023-03-22T08:26:42.867Z,58.11
2023-03-22T08:29:16.740Z,57.85
2023-03-22T08:31:47.657Z,57.51
2023-03-22T08:34:15.761Z,57.19
2023-03-22T08:36:43.656Z,58.09
2023-03-22T08:39:11.806Z,58.51
2023-03-22T08:42:05.554Z,57.03
2023-03-22T08:44:33.601Z,56.10
2023-03-22T08:47:03.138Z,55.84
2023-03-22T08:49:31.596Z,57.54
2023-03-22T08:52:07.538Z,56.74
2023-03-22T08:54:59.414Z,55.78
2023-03-22T08:57:50.320Z,56.28
2023-03-22T14:02:40.121Z,37.63
2023-03-22T14:05:12.096Z,36.88
2023-03-22T14:07:53.826Z,37.18
2023-03-22T14:10:37.061Z,36.46
2023-03-22T14:13:32.567Z,35.47
2023-03-22T14:16:21.847Z,34.73
2023-03-22T14:18:50.965Z,35.17
2023-03-22T14:21:24.569Z,33.06
